createdAt,value
2017-11-29T00:01:50.662Z,19.40
2017-11-29T00:04:18.677Z,18.33
2017-11-29T00:06:47.370Z,23.50
2017-11-29T00:09:15.914Z,22.97
2017-11-29T00:11:44.422Z,20.77
2017-11-29T00:14:13.133Z,21.83
2017-11-29T00:16:41.476Z,20.77
2017-11-29T00:19:09.817Z,27.27
2017-11-29T00:21:39.558Z,25.73
2017-11-29T00:24:09.228Z,26.80
2017-11-29T00:26:38.173Z,22.30
2017-11-29T00:29:07.850Z,22.00
2017-11-29T00:31:36.174Z,21.23
2017-11-29T00:34:06.723Z,20.83
2017-11-29T00:36:34.661Z,24.37
2017-11-29T00:39:02.654Z,25.23
2017-11-29T00:41:30.615Z,26.40
2017-11-29T00:43:58.627Z,21.93
2017-11-29T00:46:26.949Z,20.87
2017-11-29T00:48:55.288Z,23.47
2017-11-29T00:51:23.615Z,24.63
2017-11-29T00:53:52.093Z,26.03
2017-11-29T00:56:20.411Z,22.17
2017-11-29T00:58:48.745Z,21.53
2017-11-29T01:01:18.265Z,20.40
2017-11-29T01:03:46.823Z,28.13
2017-11-29T01:06:14.949Z,25.40
2017-11-29T01:08:43.288Z,24.77
2017-11-29T01:11:11.605Z,27.00
2017-11-29T01:13:40.699Z,24.40
2017-11-29T01:16:09.025Z,28.47
2017-11-29T01:18:37.389Z,27.93
2017-11-29T01:21:05.910Z,23.10
2017-11-29T01:23:34.251Z,27.33
2017-11-29T01:26:02.616Z,24.23
2017-11-29T01:28:32.428Z,25.97
2017-11-29T01:31:00.765Z,29.70
2017-11-29T01:33:29.841Z,24.30
2017-11-29T01:45:39.130Z,27.90
2017-11-29T01:48:08.257Z,38.47
2017-11-29T01:50:38.386Z,34.77
2017-11-29T01:53:09.293Z,34.93
2017-11-29T01:55:37.597Z,28.00
2017-11-29T01:58:05.916Z,40.00
2017-11-29T02:00:45.395Z,31.40
2017-11-29T02:03:13.721Z,32.57
2017-11-29T02:05:42.100Z,34.23
2017-11-29T02:08:10.421Z,31.97
2017-11-29T02:10:38.745Z,32.93
2017-11-29T02:13:07.856Z,30.10
2017-11-29T02:15:36.211Z,32.70
2017-11-29T02:18:05.031Z,37.37
2017-11-29T02:20:32.729Z,30.17
2017-11-29T02:23:01.433Z,36.20
2017-11-29T02:25:30.193Z,35.97
2017-11-29T02:27:57.868Z,34.60
2017-11-29T02:30:25.821Z,34.43
2017-11-29T02:32:53.489Z,34.67
2017-11-29T02:35:21.340Z,29.90
2017-11-29T02:37:49.743Z,29.63
2017-11-29T02:40:29.285Z,28.17
2017-11-29T02:42:56.963Z,29.80
2017-11-29T02:45:25.640Z,29.93
2017-11-29T02:47:53.772Z,29.77
2017-11-29T02:50:22.142Z,28.80
2017-11-29T02:52:49.810Z,28.67
2017-11-29T02:55:17.489Z,27.30
2017-11-29T02:57:45.155Z,25.03
2017-11-29T03:00:12.883Z,32.40
2017-11-29T03:02:40.903Z,30.13
2017-11-29T03:05:09.314Z,30.53
2017-11-29T03:07:37.311Z,31.73
2017-11-29T03:10:05.776Z,30.17
2017-11-29T03:12:34.179Z,27.73
2017-11-29T03:15:02.527Z,33.13
2017-11-29T03:17:30.873Z,32.20
2017-11-29T03:20:00.092Z,36.50
2017-11-29T03:22:28.407Z,32.17
2017-11-29T03:24:56.916Z,31.93
2017-11-29T03:27:26.032Z,36.70
2017-11-29T03:29:54.359Z,31.67
2017-11-29T03:32:22.793Z,33.63
2017-11-29T03:34:51.168Z,31.00
2017-11-29T03:37:19.576Z,30.40
2017-11-29T03:39:47.902Z,34.63
2017-11-29T03:42:16.235Z,31.03
2017-11-29T03:44:44.567Z,34.00
2017-11-29T03:47:12.913Z,30.00
2017-11-29T03:49:42.237Z,31.13
2017-11-29T03:52:10.616Z,28.20
2017-11-29T03:54:38.946Z,33.67
2017-11-29T03:57:07.271Z,30.37
2017-11-29T03:59:35.621Z,31.60
2017-11-29T04:02:04.639Z,31.30
2017-11-29T04:04:32.986Z,35.40
2017-11-29T04:07:02.085Z,33.87
2017-11-29T04:09:32.970Z,36.23
2017-11-29T04:12:00.658Z,31.00
2017-11-29T04:14:28.716Z,32.90
2017-11-29T04:16:56.384Z,34.67
2017-11-29T04:19:24.081Z,37.97
2017-11-29T04:21:52.160Z,33.20
2017-11-29T04:24:20.331Z,36.60
2017-11-29T04:26:49.211Z,33.90
2017-11-29T04:29:17.290Z,34.57
2017-11-29T04:31:45.633Z,37.70
2017-11-29T04:34:14.955Z,37.50
2017-11-29T04:36:43.329Z,39.60
2017-11-29T04:39:11.734Z,34.30
2017-11-29T04:41:40.077Z,41.03
2017-11-29T04:44:08.402Z,36.63
2017-11-29T04:46:36.780Z,41.00
2017-11-29T04:49:04.902Z,36.00
2017-11-29T04:51:32.580Z,41.93
2017-11-29T04:54:00.428Z,38.73
2017-11-29T04:56:28.252Z,42.90
2017-11-29T04:58:56.830Z,52.87
2017-11-29T05:01:24.848Z,45.00
2017-11-29T05:03:52.393Z,41.10
2017-11-29T05:06:20.418Z,47.70
2017-11-29T05:08:48.480Z,52.83
2017-11-29T05:11:16.219Z,42.07
2017-11-29T05:13:43.954Z,42.20
2017-11-29T05:16:11.957Z,43.00
2017-11-29T05:18:39.690Z,38.23
2017-11-29T05:21:07.505Z,41.03
2017-11-29T05:23:36.380Z,38.93
2017-11-29T05:26:04.396Z,44.90
2017-11-29T05:28:32.415Z,41.13
2017-11-29T05:31:00.626Z,41.20
2017-11-29T05:33:28.947Z,44.93
2017-11-29T05:35:56.438Z,43.33
2017-11-29T05:38:23.911Z,40.73
2017-11-29T05:40:51.914Z,36.83
2017-11-29T05:43:19.441Z,40.73
2017-11-29T05:45:47.513Z,40.67
2017-11-29T05:48:15.188Z,37.90
2017-11-29T05:50:42.872Z,35.57
2017-11-29T05:53:10.553Z,41.97
2017-11-29T05:55:38.228Z,40.73
2017-11-29T05:58:06.227Z,38.13
2017-11-29T06:00:34.083Z,41.20
2017-11-29T06:03:01.751Z,37.97
2017-11-29T06:05:29.586Z,36.10
2017-11-29T06:07:57.278Z,43.67
2017-11-29T06:10:25.647Z,36.23
2017-11-29T06:12:54.096Z,55.23
2017-11-29T06:15:22.311Z,47.20
2017-11-29T06:17:49.985Z,46.70
2017-11-29T06:20:18.442Z,42.87
2017-11-29T06:22:46.454Z,41.67
2017-11-29T06:25:14.443Z,43.60
2017-11-29T06:27:42.785Z,38.93
2017-11-29T06:30:10.954Z,35.07
2017-11-29T06:32:39.294Z,45.90
2017-11-29T06:35:07.689Z,35.90
2017-11-29T06:37:36.026Z,36.87
2017-11-29T06:40:04.525Z,44.50
2017-11-29T06:42:32.851Z,38.07
2017-11-29T06:45:01.952Z,35.33
2017-11-29T06:47:31.234Z,39.30
2017-11-29T06:49:59.775Z,40.27
2017-11-29T06:52:28.235Z,36.10
2017-11-29T06:54:56.595Z,36.90
2017-11-29T06:57:25.024Z,33.00
2017-11-29T06:59:53.027Z,35.40
2017-11-29T07:02:21.357Z,41.67
2017-11-29T07:04:49.687Z,43.97
2017-11-29T07:07:18.027Z,33.50
2017-11-29T07:09:46.805Z,38.17
2017-11-29T07:12:15.148Z,38.80
2017-11-29T07:14:43.464Z,38.97
2017-11-29T07:17:11.806Z,41.67
2017-11-29T07:19:40.138Z,44.53
2017-11-29T07:22:08.674Z,38.97
2017-11-29T07:24:37.024Z,43.30
2017-11-29T07:27:05.351Z,39.97
2017-11-29T07:29:33.694Z,46.00
2017-11-29T07:32:02.024Z,41.00
2017-11-29T07:34:30.633Z,44.35
2017-11-29T07:36:59.037Z,43.20
2017-11-29T07:39:27.512Z,34.53
2017-11-29T07:41:55.843Z,40.20
2017-11-29T07:44:24.168Z,39.87
2017-11-29T07:46:52.512Z,39.33
2017-11-29T07:49:21.107Z,44.50
2017-11-29T07:51:49.443Z,42.30
2017-11-29T07:54:17.791Z,43.40
2017-11-29T07:56:46.123Z,39.87
2017-11-29T07:59:14.465Z,43.90
2017-11-29T08:01:42.871Z,39.30
2017-11-29T08:04:11.075Z,42.77
2017-11-29T08:06:39.611Z,43.33
2017-11-29T08:09:07.947Z,45.30
2017-11-29T08:11:36.280Z,44.10
2017-11-29T08:14:04.765Z,42.37
2017-11-29T08:16:33.097Z,45.20
2017-11-29T08:19:01.492Z,46.20
2017-11-29T08:21:29.640Z,39.93
2017-11-29T08:23:57.794Z,43.07
2017-11-29T08:26:26.311Z,39.07
2017-11-29T08:28:54.295Z,39.00
2017-11-29T08:31:22.454Z,41.00
2017-11-29T08:33:50.971Z,37.60
2017-11-29T08:36:20.264Z,33.60
2017-11-29T08:38:48.462Z,35.70
2017-11-29T08:41:16.917Z,36.47
2017-11-29T08:43:44.577Z,36.57
2017-11-29T08:46:12.257Z,45.60
2017-11-29T08:48:40.251Z,37.60
2017-11-29T08:51:08.796Z,37.13
2017-11-29T08:53:36.464Z,39.73
2017-11-29T08:56:04.368Z,38.23
2017-11-29T08:58:32.447Z,41.53
2017-11-29T09:01:00.130Z,40.07
2017-11-29T09:03:28.263Z,40.20
2017-11-29T09:05:56.031Z,37.10
2017-11-29T09:08:24.097Z,36.80
2017-11-29T09:10:51.773Z,32.47
2017-11-29T09:13:19.665Z,35.10
2017-11-29T09:15:48.104Z,35.20
2017-11-29T09:18:15.776Z,36.90
2017-11-29T09:20:43.454Z,38.60
2017-11-29T09:23:11.315Z,35.33
2017-11-29T09:25:38.991Z,38.47
2017-11-29T09:28:07.663Z,36.23
2017-11-29T09:30:35.502Z,42.83
2017-11-29T09:33:03.193Z,40.00
2017-11-29T09:35:30.859Z,40.53
2017-11-29T09:37:58.724Z,38.30
2017-11-29T09:40:27.388Z,40.00
2017-11-29T09:42:55.360Z,39.60
2017-11-29T09:45:23.030Z,38.70
2017-11-29T09:47:50.722Z,38.40
2017-11-29T09:50:18.571Z,38.60
2017-11-29T09:52:46.266Z,36.80
2017-11-29T09:55:13.751Z,40.73
2017-11-29T09:57:41.236Z,38.03
2017-11-29T10:00:08.927Z,38.70
2017-11-29T10:02:36.690Z,36.47
2017-11-29T10:05:04.461Z,38.43
2017-11-29T10:07:32.517Z,38.23
2017-11-29T10:10:00.268Z,32.17
2017-11-29T10:12:28.040Z,36.87
2017-11-29T10:14:55.802Z,32.73
2017-11-29T10:17:23.688Z,35.07
2017-11-29T10:19:51.583Z,38.70
2017-11-29T10:22:19.244Z,41.60
2017-11-29T10:24:46.729Z,37.50
2017-11-29T10:27:14.250Z,36.40
2017-11-29T10:29:41.753Z,41.10
2017-11-29T10:32:09.425Z,35.23
2017-11-29T10:34:36.953Z,35.23
2017-11-29T10:37:05.227Z,36.87
2017-11-29T10:39:32.904Z,33.20
2017-11-29T10:42:00.573Z,38.23
2017-11-29T10:44:28.253Z,28.10
2017-11-29T10:46:55.920Z,29.93
2017-11-29T10:49:23.776Z,28.40
2017-11-29T10:51:51.454Z,23.90
2017-11-29T10:54:19.135Z,27.07
2017-11-29T10:56:46.829Z,25.50
2017-11-29T10:59:14.697Z,30.27
2017-11-29T11:01:42.371Z,28.30
2017-11-29T11:04:10.415Z,25.00
2017-11-29T11:06:38.176Z,24.20
2017-11-29T11:09:05.937Z,26.20
2017-11-29T11:11:33.603Z,21.20
2017-11-29T11:14:01.284Z,24.70
2017-11-29T11:16:28.948Z,22.40
2017-11-29T11:18:56.649Z,19.80
2017-11-29T11:21:24.530Z,24.00
2017-11-29T11:23:52.206Z,22.80
2017-11-29T11:26:20.076Z,24.30
2017-11-29T11:28:47.560Z,21.43
2017-11-29T11:31:15.280Z,20.83
2017-11-29T11:33:42.764Z,22.50
2017-11-29T11:36:10.598Z,19.10
2017-11-29T11:38:38.308Z,16.20
2017-11-29T11:41:05.995Z,19.60
2017-11-29T11:43:33.671Z,20.87
2017-11-29T11:46:01.346Z,25.83
2017-11-29T11:48:29.026Z,21.57
2017-11-29T11:50:56.711Z,21.97
2017-11-29T11:53:24.417Z,22.50
2017-11-29T11:55:52.184Z,19.10
2017-11-29T11:58:19.863Z,16.50
2017-11-29T12:00:47.708Z,17.77
2017-11-29T12:03:15.568Z,15.60
2017-11-29T12:05:43.953Z,14.90
2017-11-29T12:08:12.556Z,16.40
2017-11-29T12:10:40.231Z,18.00
2017-11-29T12:13:08.968Z,15.17
2017-11-29T12:15:36.970Z,17.63
2017-11-29T12:18:05.105Z,18.27
2017-11-29T12:20:33.172Z,19.07
2017-11-29T12:23:00.947Z,19.10
2017-11-29T12:25:28.788Z,15.23
2017-11-29T12:27:57.071Z,17.13
2017-11-29T12:30:24.739Z,18.20
2017-11-29T12:32:52.429Z,20.83
2017-11-29T12:35:20.435Z,17.43
2017-11-29T12:37:48.424Z,16.90
2017-11-29T12:40:16.100Z,22.13
2017-11-29T12:42:43.768Z,14.97
2017-11-29T12:45:11.977Z,16.90
2017-11-29T12:47:39.639Z,17.30
2017-11-29T12:50:19.312Z,17.00
2017-11-29T12:52:46.970Z,17.70
2017-11-29T12:55:14.642Z,17.87
2017-11-29T12:57:42.324Z,16.80
2017-11-29T13:00:10.004Z,16.90
2017-11-29T13:02:38.771Z,14.20
2017-11-29T13:05:06.509Z,16.00
2017-11-29T13:07:34.341Z,14.73
2017-11-29T13:10:03.049Z,18.03
2017-11-29T13:12:30.708Z,19.43
2017-11-29T13:14:58.566Z,11.37
2017-11-29T13:17:26.895Z,11.33
2017-11-29T13:19:54.564Z,15.43
2017-11-29T13:22:22.064Z,20.03
2017-11-29T13:24:49.727Z,13.67
2017-11-29T13:27:17.610Z,14.43
2017-11-29T13:29:45.344Z,13.33
2017-11-29T13:32:13.564Z,13.23
2017-11-29T13:34:42.091Z,14.90
2017-11-29T13:37:10.099Z,13.17
2017-11-29T13:39:37.783Z,14.93
2017-11-29T13:42:05.489Z,12.97
2017-11-29T13:44:33.340Z,19.90
2017-11-29T13:47:01.336Z,17.27
2017-11-29T13:49:30.098Z,19.67
2017-11-29T13:52:00.690Z,14.93
2017-11-29T13:54:28.706Z,17.77
2017-11-29T13:56:58.914Z,17.33
2017-11-29T13:59:26.632Z,20.00
2017-11-29T14:01:54.640Z,19.43
2017-11-29T14:04:23.424Z,17.43
2017-11-29T14:06:51.289Z,19.07
2017-11-29T14:09:19.309Z,15.80
2017-11-29T14:11:47.655Z,17.83
2017-11-29T14:14:16.002Z,15.07
2017-11-29T14:16:44.165Z,21.20
2017-11-29T14:19:12.333Z,15.07
2017-11-29T14:21:40.660Z,21.03
2017-11-29T14:24:09.199Z,19.60
2017-11-29T14:26:37.545Z,23.77
2017-11-29T14:29:05.687Z,19.87
2017-11-29T14:31:34.021Z,17.30
2017-11-29T14:34:02.348Z,17.37
2017-11-29T14:36:30.896Z,18.33
2017-11-29T14:38:59.046Z,21.33
2017-11-29T14:41:27.264Z,20.50
2017-11-29T14:43:55.592Z,16.27
2017-11-29T14:46:23.968Z,17.50
2017-11-29T14:48:53.301Z,19.50
2017-11-29T14:51:21.645Z,19.77
2017-11-29T14:53:50.222Z,23.63
2017-11-29T14:56:18.366Z,19.40
2017-11-29T14:58:46.664Z,15.93
2017-11-29T15:01:14.868Z,19.93
2017-11-29T15:03:43.197Z,22.07
2017-11-29T15:06:11.588Z,19.30
2017-11-29T15:08:39.920Z,21.57
2017-11-29T15:11:08.545Z,19.90
2017-11-29T15:13:36.909Z,22.13
2017-11-29T15:16:05.258Z,21.17
2017-11-29T15:18:34.698Z,18.20
2017-11-29T15:21:03.176Z,17.17
2017-11-29T15:23:32.236Z,18.30
2017-11-29T15:26:00.581Z,22.60
2017-11-29T15:28:28.912Z,18.67
2017-11-29T15:30:56.641Z,17.63
2017-11-29T15:33:24.533Z,22.53
2017-11-29T15:35:52.862Z,17.80
2017-11-29T15:38:21.226Z,18.57
2017-11-29T15:40:49.228Z,16.53
2017-11-29T15:43:18.356Z,15.77
2017-11-29T15:45:46.900Z,16.00
2017-11-29T15:48:16.009Z,15.20
2017-11-29T15:50:44.342Z,13.10
2017-11-29T15:53:12.681Z,15.23
2017-11-29T15:55:41.072Z,16.40
2017-11-29T15:58:09.078Z,20.63
2017-11-29T16:00:36.764Z,14.97
2017-11-29T16:03:06.747Z,16.43
2017-11-29T16:05:35.173Z,13.50
2017-11-29T16:08:03.499Z,15.83
2017-11-29T16:10:31.508Z,14.70
2017-11-29T16:12:59.660Z,15.50
2017-11-29T16:15:28.015Z,16.40
2017-11-29T16:17:56.362Z,17.13
2017-11-29T16:20:24.816Z,16.67
2017-11-29T16:22:53.189Z,16.33
2017-11-29T16:25:21.870Z,19.43
2017-11-29T16:27:50.244Z,20.50
2017-11-29T16:30:19.466Z,24.10
2017-11-29T16:32:47.882Z,24.67
2017-11-29T16:35:17.010Z,21.90
2017-11-29T16:37:45.200Z,21.90
2017-11-29T16:40:13.552Z,23.90
2017-11-29T16:42:41.725Z,20.60
2017-11-29T16:45:09.860Z,22.77
2017-11-29T16:47:38.199Z,24.63
2017-11-29T16:50:06.742Z,20.87
2017-11-29T16:52:35.642Z,23.97
2017-11-29T16:55:03.972Z,23.70
2017-11-29T16:57:32.315Z,25.40
2017-11-29T17:00:00.808Z,22.80
2017-11-29T17:02:29.246Z,22.87
2017-11-29T17:04:57.607Z,22.53
2017-11-29T17:07:25.959Z,22.87
2017-11-29T17:09:54.294Z,25.83
2017-11-29T17:12:22.843Z,29.83
2017-11-29T17:14:51.193Z,28.07
2017-11-29T17:17:20.014Z,26.80
2017-11-29T17:32:43.173Z,35.67
2017-11-29T17:35:11.210Z,26.00
2017-11-29T17:37:39.565Z,28.43
2017-11-29T17:40:07.921Z,29.13
2017-11-29T17:42:37.027Z,29.70
2017-11-29T17:45:05.881Z,29.20
2017-11-29T17:47:34.085Z,32.80
2017-11-29T17:50:02.467Z,33.50
2017-11-29T17:52:30.792Z,31.43
2017-11-29T17:54:59.138Z,32.30
2017-11-29T17:57:27.472Z,29.40
2017-11-29T17:59:56.569Z,31.00
2017-11-29T18:02:24.884Z,34.97
2017-11-29T18:04:53.018Z,29.47
2017-11-29T18:07:21.374Z,27.60
2017-11-29T18:09:49.048Z,29.80
2017-11-29T18:12:17.396Z,25.17
2017-11-29T18:14:45.544Z,33.93
2017-11-29T18:17:13.396Z,30.77
2017-11-29T18:19:41.732Z,27.27
2017-11-29T18:22:09.242Z,29.83
2017-11-29T18:24:37.581Z,30.47
2017-11-29T18:27:05.749Z,29.50
2017-11-29T18:29:34.674Z,32.67
2017-11-29T18:32:02.932Z,29.70
2017-11-29T18:34:31.368Z,30.03
2017-11-29T18:37:01.074Z,27.60
2017-11-29T18:39:29.598Z,30.50
2017-11-29T18:41:59.074Z,34.70
2017-11-29T18:44:27.857Z,28.57
2017-11-29T18:46:57.447Z,32.50
2017-11-29T18:49:25.772Z,30.67
2017-11-29T18:51:54.248Z,34.90
2017-11-29T18:54:22.580Z,33.20
2017-11-29T18:56:51.162Z,33.50
2017-11-29T18:59:19.411Z,34.97
2017-11-29T19:01:48.072Z,34.80
2017-11-29T19:04:16.418Z,29.70
2017-11-29T19:06:44.925Z,30.93
2017-11-29T19:09:13.999Z,35.80
2017-11-29T19:11:42.783Z,36.07
2017-11-29T19:14:11.150Z,34.47
2017-11-29T19:16:39.673Z,33.73
2017-11-29T19:19:08.029Z,32.77
2017-11-29T19:21:36.384Z,32.33
2017-11-29T19:24:07.103Z,32.47
2017-11-29T19:26:35.988Z,34.13
2017-11-29T19:29:04.008Z,39.53
2017-11-29T19:31:32.954Z,38.60
2017-11-29T19:34:01.321Z,31.40
2017-11-29T19:36:29.684Z,35.53
2017-11-29T19:38:58.137Z,32.80
2017-11-29T19:41:27.499Z,32.53
2017-11-29T19:43:55.846Z,37.83
2017-11-29T19:46:24.343Z,30.93
2017-11-29T19:48:52.674Z,29.57
2017-11-29T19:51:21.022Z,33.03
2017-11-29T19:53:49.389Z,30.80
2017-11-29T19:56:17.726Z,33.83
2017-11-29T19:58:46.096Z,30.03
2017-11-29T20:01:14.476Z,29.27
2017-11-29T20:03:42.889Z,34.80
2017-11-29T20:06:11.103Z,32.10
2017-11-29T20:08:39.115Z,32.40
2017-11-29T20:11:07.178Z,34.40
2017-11-29T20:13:34.857Z,38.83
2017-11-29T20:16:02.912Z,35.33
2017-11-29T20:18:31.256Z,27.30
2017-11-29T20:20:59.633Z,33.73
2017-11-29T20:23:27.989Z,32.00
2017-11-29T20:25:56.475Z,34.83
2017-11-29T20:28:24.841Z,33.43
2017-11-29T20:30:53.268Z,37.00
2017-11-29T20:33:21.746Z,29.50
2017-11-29T20:35:50.098Z,34.83
2017-11-29T20:38:19.222Z,35.77
2017-11-29T20:40:47.550Z,32.50
2017-11-29T20:43:15.927Z,35.33
2017-11-29T20:45:44.339Z,35.43
2017-11-29T20:48:12.703Z,31.63
2017-11-29T20:50:41.063Z,32.67
2017-11-29T20:53:10.803Z,34.20
2017-11-29T20:55:39.499Z,31.37
2017-11-29T20:58:07.869Z,30.63
2017-11-29T21:00:36.353Z,30.87
2017-11-29T21:03:04.712Z,36.17
2017-11-29T21:05:33.291Z,35.50
2017-11-29T21:08:01.638Z,33.90
2017-11-29T21:10:30.157Z,33.43
2017-11-29T21:12:58.484Z,35.07
2017-11-29T21:15:27.152Z,34.53
2017-11-29T21:17:55.368Z,37.47
2017-11-29T21:20:23.713Z,33.97
2017-11-29T21:22:53.670Z,35.27
2017-11-29T21:25:21.754Z,36.43
2017-11-29T21:27:50.114Z,37.73
2017-11-29T21:30:18.796Z,38.67
2017-11-29T21:32:47.198Z,41.10
2017-11-29T21:35:15.560Z,35.27
2017-11-29T21:37:43.948Z,36.10
2017-11-29T21:40:12.452Z,39.10
2017-11-29T21:42:40.980Z,39.33
2017-11-29T21:45:09.605Z,37.27
2017-11-29T21:47:37.947Z,37.87
2017-11-29T21:50:06.492Z,42.90
2017-11-29T21:52:34.850Z,43.13
2017-11-29T21:55:03.223Z,42.87
2017-11-29T21:57:31.642Z,46.63
2017-11-29T22:00:00.103Z,51.50
2017-11-29T22:02:28.448Z,48.37
2017-11-29T22:04:56.837Z,46.53
2017-11-29T22:07:25.179Z,44.77
2017-11-29T22:09:54.443Z,45.17
2017-11-29T22:12:24.162Z,44.00
2017-11-29T22:14:53.739Z,50.27
2017-11-29T22:17:22.078Z,46.63
2017-11-29T22:19:50.422Z,50.73
2017-11-29T22:22:18.881Z,46.90
2017-11-29T22:24:46.893Z,44.47
2017-11-29T22:27:14.572Z,44.27
2017-11-29T22:29:42.912Z,48.07
2017-11-29T22:32:11.279Z,40.10
2017-11-29T22:34:39.622Z,51.43
2017-11-29T22:37:07.969Z,49.60
2017-11-29T22:39:36.311Z,48.00
2017-11-29T22:42:04.660Z,43.00
2017-11-29T22:44:33.171Z,48.77
2017-11-29T22:47:01.535Z,45.93
2017-11-29T22:49:30.076Z,45.87
2017-11-29T22:51:58.433Z,48.17
2017-11-29T22:54:26.801Z,50.07
2017-11-29T22:56:55.157Z,46.07
2017-11-29T22:59:23.703Z,47.30
2017-11-29T23:01:52.128Z,47.70
2017-11-29T23:04:20.651Z,48.23
2017-11-29T23:06:48.998Z,47.37
2017-11-29T23:09:17.339Z,47.30
2017-11-29T23:11:45.882Z,42.73
2017-11-29T23:14:14.231Z,47.70
2017-11-29T23:16:43.351Z,46.30
2017-11-29T23:19:11.696Z,45.20
2017-11-29T23:21:40.647Z,42.83
2017-11-29T23:24:09.721Z,43.27
2017-11-29T23:26:38.026Z,44.43
2017-11-29T23:29:06.340Z,49.17
2017-11-29T23:31:34.666Z,44.97
2017-11-29T23:34:02.990Z,49.00
2017-11-29T23:36:31.327Z,45.30
2017-11-29T23:38:59.668Z,39.50
2017-11-29T23:41:28.006Z,40.93
2017-11-29T23:43:56.339Z,40.00
2017-11-29T23:46:24.692Z,41.70
2017-11-29T23:48:53.028Z,42.53
2017-11-29T23:51:21.566Z,43.97
2017-11-29T23:53:50.221Z,39.30
2017-11-29T23:56:18.548Z,38.40
2017-11-29T23:58:46.882Z,43.50
